sensor_id;sensor_type;location;lat;lon;timestamp;pressure;altitude;pressure_sealevel;temperature;humidity
40384;BME280;26097;42.366;23.818;2023-05-25T00:00:46;94046.94;;;10.23;100.00
40384;BME280;26097;42.366;23.818;2023-05-25T00:03:47;94045.13;;;10.12;100.00
40384;BME280;26097;42.366;23.818;2023-05-25T00:06:48;94045.94;;;10.02;100.00
40384;BME280;26097;42.366;23.818;2023-05-25T00:09:48;94044.38;;;9.99;100.00
40384;BME280;26097;42.366;23.818;2023-05-25T00:12:49;94037.75;;;9.95;100.00
40384;BME280;26097;42.366;23.818;2023-05-25T00:15:49;94038.59;;;9.95;100.00
40384;BME280;26097;42.366;23.818;2023-05-25T00:18:50;94045.09;;;9.90;100.00
40384;BME280;26097;42.366;23.818;2023-05-25T00:21:52;94046.25;;;9.85;100.00
40384;BME280;26097;42.366;23.818;2023-05-25T00:24:52;94044.94;;;9.80;100.00
40384;BME280;26097;42.366;23.818;2023-05-25T00:27:53;94042.88;;;9.72;100.00
40384;BME280;26097;42.366;23.818;2023-05-25T00:30:53;94046.22;;;9.74;100.00
40384;BME280;26097;42.366;23.818;2023-05-25T00:33:53;94054.84;;;9.75;100.00
40384;BME280;26097;42.366;23.818;2023-05-25T00:36:54;94050.94;;;9.69;100.00
40384;BME280;26097;42.366;23.818;2023-05-25T00:39:54;94049.25;;;9.68;100.00
40384;BME280;26097;42.366;23.818;2023-05-25T00:42:56;94056.78;;;9.60;100.00
40384;BME280;26097;42.366;23.818;2023-05-25T00:45:58;94051.81;;;9.56;100.00
40384;BME280;26097;42.366;23.818;2023-05-25T00:48:58;94047.53;;;9.55;100.00
40384;BME280;26097;42.366;23.818;2023-05-25T00:51:59;94042.78;;;9.49;100.00
40384;BME280;26097;42.366;23.818;2023-05-25T00:55:01;94045.09;;;9.41;100.00
40384;BME280;26097;42.366;23.818;2023-05-25T00:58:03;94052.41;;;9.36;100.00
40384;BME280;26097;42.366;23.818;2023-05-25T01:01:05;94042.25;;;9.33;100.00
40384;BME280;26097;42.366;23.818;2023-05-25T01:04:14;94054.75;;;9.27;100.00
40384;BME280;26097;42.366;23.818;2023-05-25T01:07:18;94048.69;;;9.27;100.00
40384;BME280;26097;42.366;23.818;2023-05-25T01:10:21;94052.69;;;9.20;100.00
40384;BME280;26097;42.366;23.818;2023-05-25T01:13:23;94048.75;;;9.14;100.00
40384;BME280;26097;42.366;23.818;2023-05-25T01:16:24;94051.44;;;9.12;100.00
40384;BME280;26097;42.366;23.818;2023-05-25T01:19:25;94055.13;;;9.10;100.00
40384;BME280;26097;42.366;23.818;2023-05-25T01:22:39;94050.84;;;9.09;100.00
40384;BME280;26097;42.366;23.818;2023-05-25T01:25:44;94047.94;;;9.00;100.00
40384;BME280;26097;42.366;23.818;2023-05-25T01:28:50;94051.72;;;8.96;100.00
40384;BME280;26097;42.366;23.818;2023-05-25T01:31:52;94047.84;;;9.02;100.00
40384;BME280;26097;42.366;23.818;2023-05-25T01:34:54;94047.72;;;9.04;100.00
40384;BME280;26097;42.366;23.818;2023-05-25T01:37:57;94050.22;;;9.05;100.00
40384;BME280;26097;42.366;23.818;2023-05-25T01:40:58;94051.63;;;8.98;100.00
40384;BME280;26097;42.366;23.818;2023-05-25T01:43:58;94049.22;;;8.95;100.00
40384;BME280;26097;42.366;23.818;2023-05-25T01:47:52;94047.66;;;8.92;100.00
40384;BME280;26097;42.366;23.818;2023-05-25T01:50:53;94050.81;;;8.84;100.00
40384;BME280;26097;42.366;23.818;2023-05-25T01:54:02;94054.25;;;8.85;100.00
40384;BME280;26097;42.366;23.818;2023-05-25T01:57:09;94050.72;;;8.86;100.00
40384;BME280;26097;42.366;23.818;2023-05-25T02:00:12;94050.19;;;8.81;100.00
40384;BME280;26097;42.366;23.818;2023-05-25T02:03:13;94049.22;;;8.82;100.00
40384;BME280;26097;42.366;23.818;2023-05-25T02:06:14;94052.78;;;8.81;100.00
40384;BME280;26097;42.366;23.818;2023-05-25T02:09:15;94047.56;;;8.81;100.00
40384;BME280;26097;42.366;23.818;2023-05-25T02:12:16;94053.22;;;8.75;100.00
40384;BME280;26097;42.366;23.818;2023-05-25T02:15:16;94059.44;;;8.72;100.00
40384;BME280;26097;42.366;23.818;2023-05-25T02:18:17;94048.00;;;8.75;100.00
40384;BME280;26097;42.366;23.818;2023-05-25T02:21:17;94046.84;;;8.79;100.00
40384;BME280;26097;42.366;23.818;2023-05-25T02:24:18;94053.84;;;8.78;100.00
40384;BME280;26097;42.366;23.818;2023-05-25T02:27:18;94058.91;;;8.80;100.00
40384;BME280;26097;42.366;23.818;2023-05-25T02:30:19;94060.06;;;8.76;100.00
40384;BME280;26097;42.366;23.818;2023-05-25T02:33:20;94064.53;;;8.74;100.00
40384;BME280;26097;42.366;23.818;2023-05-25T02:36:20;94075.47;;;8.66;100.00
40384;BME280;26097;42.366;23.818;2023-05-25T02:39:21;94062.16;;;8.70;100.00
40384;BME280;26097;42.366;23.818;2023-05-25T02:42:22;94064.25;;;8.65;100.00
40384;BME280;26097;42.366;23.818;2023-05-25T02:45:22;94072.34;;;8.74;100.00
40384;BME280;26097;42.366;23.818;2023-05-25T02:48:22;94074.22;;;8.71;100.00
40384;BME280;26097;42.366;23.818;2023-05-25T02:51:23;94079.63;;;8.68;100.00
40384;BME280;26097;42.366;23.818;2023-05-25T02:54:23;94076.50;;;8.63;100.00
40384;BME280;26097;42.366;23.818;2023-05-25T02:57:23;94079.31;;;8.60;100.00
40384;BME280;26097;42.366;23.818;2023-05-25T03:00:24;94083.78;;;8.58;100.00
40384;BME280;26097;42.366;23.818;2023-05-25T03:03:25;94086.16;;;8.61;100.00
40384;BME280;26097;42.366;23.818;2023-05-25T03:06:26;94087.00;;;8.62;100.00
40384;BME280;26097;42.366;23.818;2023-05-25T03:09:26;94089.19;;;8.68;100.00
40384;BME280;26097;42.366;23.818;2023-05-25T03:12:27;94088.16;;;8.70;100.00
40384;BME280;26097;42.366;23.818;2023-05-25T03:15:27;94091.03;;;8.79;100.00
40384;BME280;26097;42.366;23.818;2023-05-25T03:18:27;94098.63;;;8.82;100.00
40384;BME280;26097;42.366;23.818;2023-05-25T03:21:28;94091.88;;;8.92;100.00
40384;BME280;26097;42.366;23.818;2023-05-25T03:24:28;94086.22;;;8.98;100.00
40384;BME280;26097;42.366;23.818;2023-05-25T03:27:29;94091.75;;;9.07;100.00
40384;BME280;26097;42.366;23.818;2023-05-25T03:30:29;94101.91;;;9.10;100.00
40384;BME280;26097;42.366;23.818;2023-05-25T03:33:30;94095.56;;;9.14;100.00
40384;BME280;26097;42.366;23.818;2023-05-25T03:36:30;94099.09;;;9.13;100.00
40384;BME280;26097;42.366;23.818;2023-05-25T03:39:32;94100.31;;;9.20;100.00
40384;BME280;26097;42.366;23.818;2023-05-25T03:42:33;94097.31;;;9.26;100.00
40384;BME280;26097;42.366;23.818;2023-05-25T03:45:33;94105.38;;;9.35;100.00
40384;BME280;26097;42.366;23.818;2023-05-25T03:48:33;94105.25;;;9.49;100.00
40384;BME280;26097;42.366;23.818;2023-05-25T03:51:34;94106.75;;;9.65;100.00
40384;BME280;26097;42.366;23.818;2023-05-25T03:54:35;94117.19;;;9.76;100.00
40384;BME280;26097;42.366;23.818;2023-05-25T03:57:36;94111.13;;;9.89;100.00
40384;BME280;26097;42.366;23.818;2023-05-25T04:00:36;94113.31;;;10.06;100.00
40384;BME280;26097;42.366;23.818;2023-05-25T04:03:36;94114.81;;;10.33;100.00
40384;BME280;26097;42.366;23.818;2023-05-25T04:06:37;94110.84;;;10.52;100.00
40384;BME280;26097;42.366;23.818;2023-05-25T04:09:38;94111.13;;;10.71;100.00
40384;BME280;26097;42.366;23.818;2023-05-25T04:12:38;94108.88;;;10.90;100.00
40384;BME280;26097;42.366;23.818;2023-05-25T04:15:39;94114.81;;;11.14;100.00
40384;BME280;26097;42.366;23.818;2023-05-25T04:18:39;94106.59;;;11.42;100.00
40384;BME280;26097;42.366;23.818;2023-05-25T04:21:40;94111.78;;;11.65;100.00
40384;BME280;26097;42.366;23.818;2023-05-25T04:24:40;94120.03;;;11.81;100.00
40384;BME280;26097;42.366;23.818;2023-05-25T04:27:41;94122.84;;;12.01;100.00
40384;BME280;26097;42.366;23.818;2023-05-25T04:30:41;94126.59;;;12.20;100.00
40384;BME280;26097;42.366;23.818;2023-05-25T04:33:42;94133.53;;;12.31;100.00
40384;BME280;26097;42.366;23.818;2023-05-25T04:36:43;94125.13;;;12.48;100.00
40384;BME280;26097;42.366;23.818;2023-05-25T04:39:44;94128.00;;;12.66;100.00
40384;BME280;26097;42.366;23.818;2023-05-25T04:42:44;94127.41;;;12.84;100.00
40384;BME280;26097;42.366;23.818;2023-05-25T04:45:47;94121.84;;;12.98;100.00
40384;BME280;26097;42.366;23.818;2023-05-25T04:48:47;94126.84;;;13.11;100.00
40384;BME280;26097;42.366;23.818;2023-05-25T04:51:47;94126.09;;;13.31;100.00
40384;BME280;26097;42.366;23.818;2023-05-25T04:54:48;94118.41;;;13.39;100.00
40384;BME280;26097;42.366;23.818;2023-05-25T04:57:48;94111.84;;;13.54;100.00
40384;BME280;26097;42.366;23.818;2023-05-25T05:00:49;94120.56;;;13.65;100.00
40384;BME280;26097;42.366;23.818;2023-05-25T05:03:49;94128.59;;;13.83;100.00
40384;BME280;26097;42.366;23.818;2023-05-25T05:06:49;94126.84;;;14.03;100.00
40384;BME280;26097;42.366;23.818;2023-05-25T05:09:50;94129.06;;;14.18;100.00
40384;BME280;26097;42.366;23.818;2023-05-25T05:12:50;94132.91;;;14.33;100.00
40384;BME280;26097;42.366;23.818;2023-05-25T05:15:51;94129.84;;;14.48;100.00
40384;BME280;26097;42.366;23.818;2023-05-25T05:18:53;94136.75;;;14.49;100.00
40384;BME280;26097;42.366;23.818;2023-05-25T05:21:53;94130.13;;;14.54;100.00
40384;BME280;26097;42.366;23.818;2023-05-25T05:24:53;94131.78;;;14.55;100.00
40384;BME280;26097;42.366;23.818;2023-05-25T05:27:54;94135.38;;;14.64;100.00
40384;BME280;26097;42.366;23.818;2023-05-25T05:30:54;94138.97;;;14.83;100.00
40384;BME280;26097;42.366;23.818;2023-05-25T05:33:55;94125.63;;;15.14;100.00
40384;BME280;26097;42.366;23.818;2023-05-25T05:36:55;94125.34;;;15.45;100.00
40384;BME280;26097;42.366;23.818;2023-05-25T05:39:56;94125.56;;;15.80;100.00
40384;BME280;26097;42.366;23.818;2023-05-25T05:42:56;94119.31;;;15.91;100.00
40384;BME280;26097;42.366;23.818;2023-05-25T05:45:56;94126.50;;;15.89;100.00
40384;BME280;26097;42.366;23.818;2023-05-25T05:48:57;94126.78;;;15.85;100.00
40384;BME280;26097;42.366;23.818;2023-05-25T05:51:57;94123.19;;;15.87;100.00
40384;BME280;26097;42.366;23.818;2023-05-25T05:54:58;94132.03;;;15.85;100.00
40384;BME280;26097;42.366;23.818;2023-05-25T05:57:58;94128.81;;;16.02;100.00
40384;BME280;26097;42.366;23.818;2023-05-25T06:00:59;94129.16;;;16.25;100.00
40384;BME280;26097;42.366;23.818;2023-05-25T06:04:00;94131.09;;;16.59;100.00
40384;BME280;26097;42.366;23.818;2023-05-25T06:07:00;94131.97;;;17.12;100.00
40384;BME280;26097;42.366;23.818;2023-05-25T06:10:01;94129.41;;;17.55;100.00
40384;BME280;26097;42.366;23.818;2023-05-25T06:13:01;94125.38;;;17.86;100.00
40384;BME280;26097;42.366;23.818;2023-05-25T06:16:02;94123.84;;;18.18;100.00
40384;BME280;26097;42.366;23.818;2023-05-25T06:19:02;94126.16;;;18.54;100.00
40384;BME280;26097;42.366;23.818;2023-05-25T06:22:03;94127.50;;;18.83;100.00
40384;BME280;26097;42.366;23.818;2023-05-25T06:25:03;94128.31;;;19.09;100.00
40384;BME280;26097;42.366;23.818;2023-05-25T06:28:04;94124.13;;;19.39;100.00
40384;BME280;26097;42.366;23.818;2023-05-25T06:31:04;94127.47;;;19.65;100.00
40384;BME280;26097;42.366;23.818;2023-05-25T06:34:05;94128.56;;;19.95;100.00
40384;BME280;26097;42.366;23.818;2023-05-25T06:37:05;94129.97;;;20.06;100.00
40384;BME280;26097;42.366;23.818;2023-05-25T06:40:06;94128.44;;;20.12;100.00
40384;BME280;26097;42.366;23.818;2023-05-25T06:43:09;94130.03;;;20.21;100.00
40384;BME280;26097;42.366;23.818;2023-05-25T06:46:09;94127.41;;;20.45;100.00
40384;BME280;26097;42.366;23.818;2023-05-25T06:49:10;94130.47;;;20.33;100.00
40384;BME280;26097;42.366;23.818;2023-05-25T06:52:11;94136.13;;;20.30;100.00
40384;BME280;26097;42.366;23.818;2023-05-25T06:55:11;94129.03;;;20.22;100.00
40384;BME280;26097;42.366;23.818;2023-05-25T06:58:12;94125.47;;;20.38;100.00
40384;BME280;26097;42.366;23.818;2023-05-25T07:01:12;94121.88;;;20.31;100.00
40384;BME280;26097;42.366;23.818;2023-05-25T07:04:13;94131.41;;;20.40;100.00
40384;BME280;26097;42.366;23.818;2023-05-25T07:07:13;94124.09;;;20.43;100.00
40384;BME280;26097;42.366;23.818;2023-05-25T07:10:13;94128.59;;;20.65;100.00
40384;BME280;26097;42.366;23.818;2023-05-25T07:13:14;94119.47;;;21.06;100.00
40384;BME280;26097;42.366;23.818;2023-05-25T07:16:14;94126.16;;;21.17;100.00
40384;BME280;26097;42.366;23.818;2023-05-25T07:19:15;94125.72;;;21.14;100.00
40384;BME280;26097;42.366;23.818;2023-05-25T07:22:15;94122.91;;;21.45;100.00
40384;BME280;26097;42.366;23.818;2023-05-25T07:25:18;94120.88;;;21.77;100.00
40384;BME280;26097;42.366;23.818;2023-05-25T07:28:18;94130.31;;;21.65;100.00
40384;BME280;26097;42.366;23.818;2023-05-25T07:31:19;94114.38;;;21.80;100.00
40384;BME280;26097;42.366;23.818;2023-05-25T07:34:19;94129.31;;;22.39;92.52
40384;BME280;26097;42.366;23.818;2023-05-25T07:37:20;94129.63;;;22.66;84.25
40384;BME280;26097;42.366;23.818;2023-05-25T07:40:20;94133.00;;;23.04;81.84
40384;BME280;26097;42.366;23.818;2023-05-25T07:43:20;94127.97;;;22.87;76.70
40384;BME280;26097;42.366;23.818;2023-05-25T07:46:21;94127.13;;;23.15;76.92
40384;BME280;26097;42.366;23.818;2023-05-25T07:49:24;94129.78;;;23.15;78.58
40384;BME280;26097;42.366;23.818;2023-05-25T07:52:24;94122.59;;;23.09;75.31
40384;BME280;26097;42.366;23.818;2023-05-25T07:55:25;94127.41;;;22.99;76.65
40384;BME280;26097;42.366;23.818;2023-05-25T07:58:26;94132.59;;;23.07;74.83
40384;BME280;26097;42.366;23.818;2023-05-25T08:01:26;94125.16;;;23.52;74.94
40384;BME280;26097;42.366;23.818;2023-05-25T08:04:26;94123.22;;;23.11;78.40
40384;BME280;26097;42.366;23.818;2023-05-25T08:07:27;94124.09;;;23.47;78.49
40384;BME280;26097;42.366;23.818;2023-05-25T08:10:27;94121.59;;;23.38;79.02
40384;BME280;26097;42.366;23.818;2023-05-25T08:13:31;94130.31;;;22.17;81.67
40384;BME280;26097;42.366;23.818;2023-05-25T08:16:31;94124.31;;;21.93;86.71
40384;BME280;26097;42.366;23.818;2023-05-25T08:19:32;94123.34;;;21.64;89.91
40384;BME280;26097;42.366;23.818;2023-05-25T08:22:32;94132.19;;;21.41;91.54
40384;BME280;26097;42.366;23.818;2023-05-25T08:25:32;94135.75;;;21.18;92.33
40384;BME280;26097;42.366;23.818;2023-05-25T08:28:33;94135.34;;;20.91;94.57
40384;BME280;26097;42.366;23.818;2023-05-25T08:31:33;94131.63;;;20.77;97.00
40384;BME280;26097;42.366;23.818;2023-05-25T08:34:34;94127.59;;;20.66;100.00
40384;BME280;26097;42.366;23.818;2023-05-25T08:37:35;94137.47;;;20.73;98.45
40384;BME280;26097;42.366;23.818;2023-05-25T08:40:35;94135.50;;;20.90;93.24
40384;BME280;26097;42.366;23.818;2023-05-25T08:43:40;94128.47;;;20.82;94.60
40384;BME280;26097;42.366;23.818;2023-05-25T08:46:41;94141.34;;;20.62;99.12
40384;BME280;26097;42.366;23.818;2023-05-25T08:49:43;94145.41;;;20.49;100.00
40384;BME280;26097;42.366;23.818;2023-05-25T08:52:44;94142.94;;;20.48;100.00
40384;BME280;26097;42.366;23.818;2023-05-25T08:55:46;94137.81;;;20.69;100.00
40384;BME280;26097;42.366;23.818;2023-05-25T08:58:54;94148.13;;;20.88;99.25
40384;BME280;26097;42.366;23.818;2023-05-25T09:05:19;94147.19;;;21.34;88.35
40384;BME280;26097;42.366;23.818;2023-05-25T09:08:20;94136.03;;;21.53;86.95
40384;BME280;26097;42.366;23.818;2023-05-25T09:11:22;94138.53;;;21.85;84.99
40384;BME280;26097;42.366;23.818;2023-05-25T09:14:22;94137.00;;;22.13;82.18
40384;BME280;26097;42.366;23.818;2023-05-25T09:17:23;94127.91;;;22.80;78.65
40384;BME280;26097;42.366;23.818;2023-05-25T09:20:24;94137.50;;;23.32;68.79
40384;BME280;26097;42.366;23.818;2023-05-25T09:23:30;94130.53;;;24.01;71.18
40384;BME280;26097;42.366;23.818;2023-05-25T09:26:31;94122.88;;;23.85;66.20
40384;BME280;26097;42.366;23.818;2023-05-25T09:29:33;94123.31;;;24.57;62.71
40384;BME280;26097;42.366;23.818;2023-05-25T09:32:34;94119.69;;;24.78;53.99
40384;BME280;26097;42.366;23.818;2023-05-25T09:35:34;94120.47;;;25.33;57.82
40384;BME280;26097;42.366;23.818;2023-05-25T09:38:35;94108.78;;;25.47;55.55
40384;BME280;26097;42.366;23.818;2023-05-25T09:41:36;94100.13;;;25.45;54.63
40384;BME280;26097;42.366;23.818;2023-05-25T09:44:37;94126.25;;;25.03;53.01
40384;BME280;26097;42.366;23.818;2023-05-25T09:47:39;94115.16;;;25.19;51.85
40384;BME280;26097;42.366;23.818;2023-05-25T09:50:39;94115.97;;;25.40;54.33
40384;BME280;26097;42.366;23.818;2023-05-25T09:53:40;94123.75;;;25.35;51.04
40384;BME280;26097;42.366;23.818;2023-05-25T09:56:40;94134.88;;;24.78;49.28
40384;BME280;26097;42.366;23.818;2023-05-25T09:59:42;94125.75;;;24.38;51.12
40384;BME280;26097;42.366;23.818;2023-05-25T10:02:42;94127.34;;;23.84;50.02
40384;BME280;26097;42.366;23.818;2023-05-25T10:05:44;94123.84;;;23.77;51.80
40384;BME280;26097;42.366;23.818;2023-05-25T10:08:46;94128.47;;;23.61;51.51
40384;BME280;26097;42.366;23.818;2023-05-25T10:11:50;94121.75;;;24.07;50.40
40384;BME280;26097;42.366;23.818;2023-05-25T10:14:50;94119.59;;;24.38;50.33
40384;BME280;26097;42.366;23.818;2023-05-25T10:17:53;94118.34;;;24.34;52.43
40384;BME280;26097;42.366;23.818;2023-05-25T10:21:02;94116.38;;;25.03;48.75
40384;BME280;26097;42.366;23.818;2023-05-25T10:24:05;94125.00;;;25.05;50.18
40384;BME280;26097;42.366;23.818;2023-05-25T10:27:14;94127.81;;;24.50;50.36
40384;BME280;26097;42.366;23.818;2023-05-25T10:30:17;94122.88;;;23.85;56.71
40384;BME280;26097;42.366;23.818;2023-05-25T10:33:18;94131.91;;;22.48;59.06
40384;BME280;26097;42.366;23.818;2023-05-25T10:36:21;94133.03;;;21.87;62.28
40384;BME280;26097;42.366;23.818;2023-05-25T10:39:22;94143.69;;;21.18;64.55
40384;BME280;26097;42.366;23.818;2023-05-25T10:42:25;94130.75;;;21.53;66.84
40384;BME280;26097;42.366;23.818;2023-05-25T10:45:27;94128.09;;;21.38;73.91
40384;BME280;26097;42.366;23.818;2023-05-25T10:48:45;94125.91;;;21.72;73.18
40384;BME280;26097;42.366;23.818;2023-05-25T10:51:56;94124.53;;;21.76;73.34
40384;BME280;26097;42.366;23.818;2023-05-25T10:54:59;94132.31;;;21.78;73.53
40384;BME280;26097;42.366;23.818;2023-05-25T10:58:07;94136.38;;;22.10;72.99
40384;BME280;26097;42.366;23.818;2023-05-25T11:01:13;94129.59;;;22.45;70.45
40384;BME280;26097;42.366;23.818;2023-05-25T11:04:14;94125.69;;;22.40;66.68
40384;BME280;26097;42.366;23.818;2023-05-25T11:07:16;94119.13;;;22.80;65.33
40384;BME280;26097;42.366;23.818;2023-05-25T11:13:48;94111.88;;;22.95;62.92
40384;BME280;26097;42.366;23.818;2023-05-25T11:20:21;94116.50;;;23.15;61.29
40384;BME280;26097;42.366;23.818;2023-05-25T11:23:23;94102.59;;;23.84;60.53
40384;BME280;26097;42.366;23.818;2023-05-25T11:26:32;94101.47;;;24.06;58.37
40384;BME280;26097;42.366;23.818;2023-05-25T11:29:32;94111.22;;;24.61;57.24
40384;BME280;26097;42.366;23.818;2023-05-25T11:32:35;94108.41;;;24.90;55.63
40384;BME280;26097;42.366;23.818;2023-05-25T11:35:38;94108.03;;;23.62;59.34
40384;BME280;26097;42.366;23.818;2023-05-25T11:38:42;94113.16;;;22.78;60.91
40384;BME280;26097;42.366;23.818;2023-05-25T11:41:54;94105.75;;;23.23;59.86
40384;BME280;26097;42.366;23.818;2023-05-25T11:44:55;94098.16;;;23.20;60.29
40384;BME280;26097;42.366;23.818;2023-05-25T11:47:56;94104.69;;;22.67;62.40
40384;BME280;26097;42.366;23.818;2023-05-25T11:51:04;94108.41;;;21.93;61.75
40384;BME280;26097;42.366;23.818;2023-05-25T11:54:05;94107.19;;;22.10;64.61
40384;BME280;26097;42.366;23.818;2023-05-25T11:57:16;94092.25;;;22.09;64.15
40384;BME280;26097;42.366;23.818;2023-05-25T12:00:24;94102.22;;;21.55;63.14
40384;BME280;26097;42.366;23.818;2023-05-25T12:03:32;94087.09;;;21.86;65.67
40384;BME280;26097;42.366;23.818;2023-05-25T12:06:32;94084.78;;;21.98;60.55
40384;BME280;26097;42.366;23.818;2023-05-25T12:09:35;94088.91;;;22.44;62.26
40384;BME280;26097;42.366;23.818;2023-05-25T12:12:46;94077.81;;;22.34;61.54
40384;BME280;26097;42.366;23.818;2023-05-25T12:15:47;94071.06;;;23.10;58.81
40384;BME280;26097;42.366;23.818;2023-05-25T12:18:48;94070.56;;;24.05;54.31
40384;BME280;26097;42.366;23.818;2023-05-25T12:21:48;94065.28;;;25.27;52.53
40384;BME280;26097;42.366;23.818;2023-05-25T12:24:50;94058.50;;;25.31;52.52
40384;BME280;26097;42.366;23.818;2023-05-25T12:31:23;94054.16;;;25.57;52.60
40384;BME280;26097;42.366;23.818;2023-05-25T12:34:25;94058.91;;;25.41;51.52
40384;BME280;26097;42.366;23.818;2023-05-25T12:37:26;94058.13;;;25.14;51.03
40384;BME280;26097;42.366;23.818;2023-05-25T12:40:26;94045.00;;;25.12;50.19
40384;BME280;26097;42.366;23.818;2023-05-25T12:43:36;94052.97;;;25.32;49.48
40384;BME280;26097;42.366;23.818;2023-05-25T12:46:37;94049.16;;;24.81;51.07
40384;BME280;26097;42.366;23.818;2023-05-25T12:49:39;94048.25;;;25.28;51.10
40384;BME280;26097;42.366;23.818;2023-05-25T12:52:43;94045.94;;;26.04;48.33
40384;BME280;26097;42.366;23.818;2023-05-25T12:55:44;94049.16;;;26.19;46.49
40384;BME280;26097;42.366;23.818;2023-05-25T12:58:44;94038.22;;;25.82;47.09
40384;BME280;26097;42.366;23.818;2023-05-25T13:01:45;94043.66;;;25.69;47.67
40384;BME280;26097;42.366;23.818;2023-05-25T13:04:45;94033.19;;;26.45;47.20
40384;BME280;26097;42.366;23.818;2023-05-25T13:07:46;94039.41;;;25.93;50.05
40384;BME280;26097;42.366;23.818;2023-05-25T13:10:48;94030.97;;;25.50;48.77
40384;BME280;26097;42.366;23.818;2023-05-25T13:13:50;94026.84;;;25.55;50.76
40384;BME280;26097;42.366;23.818;2023-05-25T13:16:53;94024.22;;;26.90;47.36
40384;BME280;26097;42.366;23.818;2023-05-25T13:19:53;94037.84;;;26.56;44.12
40384;BME280;26097;42.366;23.818;2023-05-25T13:22:54;94039.28;;;25.08;49.05
40384;BME280;26097;42.366;23.818;2023-05-25T13:25:54;94037.66;;;24.87;51.44
40384;BME280;26097;42.366;23.818;2023-05-25T13:28:55;94034.63;;;25.70;49.71
40384;BME280;26097;42.366;23.818;2023-05-25T13:31:55;94032.84;;;25.30;50.82
40384;BME280;26097;42.366;23.818;2023-05-25T13:34:56;94041.78;;;24.76;48.80
40384;BME280;26097;42.366;23.818;2023-05-25T13:38:00;94033.44;;;25.45;45.75
40384;BME280;26097;42.366;23.818;2023-05-25T13:41:01;94021.41;;;25.81;47.16
40384;BME280;26097;42.366;23.818;2023-05-25T13:44:02;94030.47;;;24.47;49.29
40384;BME280;26097;42.366;23.818;2023-05-25T13:47:03;94042.13;;;23.64;53.25
40384;BME280;26097;42.366;23.818;2023-05-25T13:50:04;94055.63;;;22.42;59.48
40384;BME280;26097;42.366;23.818;2023-05-25T13:53:05;94053.22;;;21.51;65.04
40384;BME280;26097;42.366;23.818;2023-05-25T13:56:05;94056.78;;;20.83;67.51
40384;BME280;26097;42.366;23.818;2023-05-25T13:59:05;94056.28;;;20.41;70.38
40384;BME280;26097;42.366;23.818;2023-05-25T14:02:06;94053.41;;;20.05;73.68
40384;BME280;26097;42.366;23.818;2023-05-25T14:05:07;94053.44;;;19.65;73.85
40384;BME280;26097;42.366;23.818;2023-05-25T14:08:07;94055.84;;;19.03;79.27
40384;BME280;26097;42.366;23.818;2023-05-25T14:11:08;94067.94;;;18.64;82.35
40384;BME280;26097;42.366;23.818;2023-05-25T14:14:08;94065.97;;;18.33;83.46
40384;BME280;26097;42.366;23.818;2023-05-25T14:17:09;94074.00;;;17.98;85.63
40384;BME280;26097;42.366;23.818;2023-05-25T14:20:09;94074.44;;;17.69;87.07
40384;BME280;26097;42.366;23.818;2023-05-25T14:23:14;94093.09;;;17.41;91.11
40384;BME280;26097;42.366;23.818;2023-05-25T14:26:15;94085.84;;;17.00;99.38
40384;BME280;26097;42.366;23.818;2023-05-25T14:29:15;94084.41;;;16.61;100.00
40384;BME280;26097;42.366;23.818;2023-05-25T14:32:16;94087.59;;;16.47;100.00
40384;BME280;26097;42.366;23.818;2023-05-25T14:35:17;94084.63;;;16.23;100.00
40384;BME280;26097;42.366;23.818;2023-05-25T14:38:17;94090.25;;;16.10;100.00
40384;BME280;26097;42.366;23.818;2023-05-25T14:41:18;94091.81;;;15.85;100.00
40384;BME280;26097;42.366;23.818;2023-05-25T14:44:18;94087.47;;;15.66;100.00
40384;BME280;26097;42.366;23.818;2023-05-25T14:47:18;94082.34;;;15.46;100.00
40384;BME280;26097;42.366;23.818;2023-05-25T14:50:19;94079.63;;;15.38;100.00
40384;BME280;26097;42.366;23.818;2023-05-25T14:53:19;94080.03;;;15.15;100.00
40384;BME280;26097;42.366;23.818;2023-05-25T14:56:20;94077.78;;;15.20;100.00
40384;BME280;26097;42.366;23.818;2023-05-25T14:59:23;94077.09;;;15.46;100.00
40384;BME280;26097;42.366;23.818;2023-05-25T15:02:24;94072.50;;;15.76;100.00
40384;BME280;26097;42.366;23.818;2023-05-25T15:05:24;94074.03;;;15.97;100.00
40384;BME280;26097;42.366;23.818;2023-05-25T15:08:25;94061.31;;;16.28;100.00
40384;BME280;26097;42.366;23.818;2023-05-25T15:11:25;94068.75;;;16.33;100.00
40384;BME280;26097;42.366;23.818;2023-05-25T15:14:26;94062.44;;;16.44;100.00
40384;BME280;26097;42.366;23.818;2023-05-25T15:17:26;94063.19;;;16.36;100.00
40384;BME280;26097;42.366;23.818;2023-05-25T15:20:27;94067.03;;;16.42;100.00
40384;BME280;26097;42.366;23.818;2023-05-25T15:23:27;94070.09;;;16.37;100.00
40384;BME280;26097;42.366;23.818;2023-05-25T15:26:27;94085.56;;;16.40;100.00
40384;BME280;26097;42.366;23.818;2023-05-25T15:29:28;94090.22;;;16.47;100.00
40384;BME280;26097;42.366;23.818;2023-05-25T15:32:28;94101.72;;;16.46;100.00
40384;BME280;26097;42.366;23.818;2023-05-25T15:35:29;94111.03;;;16.40;100.00
40384;BME280;26097;42.366;23.818;2023-05-25T15:38:32;94100.03;;;16.36;100.00
40384;BME280;26097;42.366;23.818;2023-05-25T15:41:32;94104.13;;;16.39;100.00
40384;BME280;26097;42.366;23.818;2023-05-25T15:44:32;94104.13;;;16.39;100.00
40384;BME280;26097;42.366;23.818;2023-05-25T15:47:33;94093.59;;;16.57;100.00
40384;BME280;26097;42.366;23.818;2023-05-25T15:50:33;94087.06;;;17.14;100.00
40384;BME280;26097;42.366;23.818;2023-05-25T15:53:34;94085.41;;;17.56;100.00
40384;BME280;26097;42.366;23.818;2023-05-25T15:56:35;94082.19;;;17.27;100.00